Time;durP1;ratioP1;P1;durP2;ratioP2;P2;SDS_P1;SDS_P2;PMS_P1;PMS_P2;Temp;Humidity;BMP_temperature;BMP_pressure;BME280_temperature;BME280_humidity;BME280_pressure;Samples;Min_cycle;Max_cycle;Signal;HPM_P1;HPM_P2
2022/09/10 00:00:18;;;;;;;5.33;1.57;;;;;;;21.53;65.44;100198.16;5086211;28;20311;-62
2022/09/10 00:02:44;;;;;;;6.00;1.60;;;;;;;21.40;65.82;100176.78;5090511;28;21043;-63
2022/09/10 00:05:11;;;;;;;4.23;1.57;;;;;;;21.42;64.90;100162.03;5091387;28;20201;-62
2022/09/10 00:07:37;;;;;;;4.73;1.27;;;;;;;21.26;65.75;100164.38;5089034;28;20265;-62
2022/09/10 00:10:03;;;;;;;6.50;1.40;;;;;;;21.40;64.99;100168.16;5065544;28;20825;-62
2022/09/10 00:12:30;;;;;;;4.60;1.10;;;;;;;21.34;65.48;100152.56;5047327;28;20440;-62
2022/09/10 00:14:55;;;;;;;3.70;1.20;;;;;;;21.13;65.86;100151.63;5091171;28;20177;-63
2022/09/10 00:17:21;;;;;;;4.30;0.93;;;;;;;21.25;65.79;100160.72;5046293;28;20806;-62
2022/09/10 00:19:46;;;;;;;6.43;1.20;;;;;;;21.06;66.64;100142.97;5090431;28;20642;-62
2022/09/10 00:22:12;;;;;;;3.60;1.20;;;;;;;21.24;65.57;100141.84;5089395;28;20194;-62
2022/09/10 00:24:38;;;;;;;4.33;1.37;;;;;;;21.34;65.20;100132.47;5087484;28;20182;-63
2022/09/10 00:27:03;;;;;;;5.50;1.40;;;;;;;21.22;66.03;100129.94;5089231;28;20186;-62
2022/09/10 00:29:30;;;;;;;4.97;1.13;;;;;;;21.38;65.32;100130.41;5090362;28;20216;-62
2022/09/10 00:31:56;;;;;;;5.10;1.13;;;;;;;21.24;65.99;100133.22;5089719;28;20170;-62
2022/09/10 00:34:21;;;;;;;2.40;1.20;;;;;;;21.37;65.49;100137.38;5089082;28;20472;-62
2022/09/10 00:36:47;;;;;;;6.50;1.37;;;;;;;21.48;64.68;100132.47;5089569;28;20186;-62
2022/09/10 00:39:14;;;;;;;7.20;1.13;;;;;;;21.52;64.88;100126.78;5081664;28;20186;-62
2022/09/10 00:41:41;;;;;;;3.67;1.03;;;;;;;21.26;65.90;100130.78;5087510;28;20190;-62
2022/09/10 00:44:36;;;;;;;5.10;1.20;;;;;;;21.41;65.30;100123.84;5068228;28;20537;-62
2022/09/10 00:47:01;;;;;;;3.33;0.97;;;;;;;21.29;65.82;100124.22;5070593;28;20456;-62
2022/09/10 00:49:39;;;;;;;2.40;0.97;;;;;;;21.45;64.52;100123.84;5055226;28;20510;-62
2022/09/10 00:52:05;;;;;;;2.50;0.97;;;;;;;21.50;65.10;100124.31;5070388;28;20192;-62
2022/09/10 00:54:30;;;;;;;3.07;1.17;;;;;;;21.52;64.96;100109.53;5090957;28;20959;-62
2022/09/10 00:57:00;;;;;;;6.63;1.10;;;;;;;21.53;64.30;100117.72;5056229;28;20242;-62
2022/09/10 00:59:25;;;;;;;4.10;1.03;;;;;;;21.48;65.03;100121.00;5073381;28;20197;-62
2022/09/10 01:01:51;;;;;;;3.57;1.10;;;;;;;21.41;64.97;100126.72;5080610;28;20433;-62
2022/09/10 01:04:16;;;;;;;3.47;1.33;;;;;;;21.15;66.33;100118.41;5085080;28;20671;-62
2022/09/10 01:06:44;;;;;;;6.03;0.90;;;;;;;21.01;66.85;100123.25;5075005;28;20588;-62
2022/09/10 01:09:09;;;;;;;4.30;1.00;;;;;;;21.02;66.87;100127.78;5038202;28;20256;-62
2022/09/10 01:12:04;;;;;;;7.80;1.13;;;;;;;21.13;66.41;100120.84;5074770;28;20753;-62
2022/09/10 01:14:32;;;;;;;4.20;1.47;;;;;;;21.28;66.06;100116.81;5087354;28;21215;-62
2022/09/10 01:17:10;;;;;;;4.30;0.90;;;;;;;21.28;65.85;100121.75;5070798;28;20432;-62
2022/09/10 01:19:54;;;;;;;4.23;1.10;;;;;;;21.40;65.29;100118.50;5052101;28;20465;-62
2022/09/10 01:22:31;;;;;;;4.30;1.07;;;;;;;21.42;65.16;100119.75;5070556;28;20421;-62
2022/09/10 01:25:27;;;;;;;3.10;0.90;;;;;;;21.24;65.85;100116.00;5085933;28;20474;-62
2022/09/10 01:27:56;;;;;;;3.70;1.20;;;;;;;21.31;65.44;100120.94;5090842;28;20765;-63
2022/09/10 01:30:23;;;;;;;3.30;1.07;;;;;;;21.03;66.47;100115.06;5061261;28;20924;-63
2022/09/10 01:33:03;;;;;;;3.77;1.07;;;;;;;21.14;65.92;100116.78;5057185;28;21381;-63
2022/09/10 01:35:31;;;;;;;3.13;0.93;;;;;;;21.22;65.94;100120.50;5068340;28;20436;-62
2022/09/10 01:37:58;;;;;;;3.20;1.00;;;;;;;21.25;65.42;100123.38;5088042;28;20414;-62
2022/09/10 01:40:28;;;;;;;3.33;1.10;;;;;;;21.38;65.38;100130.41;5052474;28;20428;-63
2022/09/10 01:43:01;;;;;;;4.03;1.20;;;;;;;21.35;65.04;100125.47;5056682;28;20815;-63
2022/09/10 01:45:27;;;;;;;8.23;1.30;;;;;;;21.39;64.79;100134.94;5074214;28;20517;-62
2022/09/10 01:48:31;;;;;;;2.50;1.00;;;;;;;21.34;65.54;100126.72;5066367;28;20408;-62
2022/09/10 01:51:03;;;;;;;4.10;1.13;;;;;;;21.19;65.71;100132.78;5039628;28;20432;-63
2022/09/10 01:53:50;;;;;;;4.80;1.23;;;;;;;21.20;65.80;100120.91;5080506;28;20412;-62
2022/09/10 01:56:27;;;;;;;2.30;1.00;;;;;;;21.01;66.61;100124.09;5093734;28;20411;-62
2022/09/10 01:58:56;;;;;;;3.57;0.80;;;;;;;20.95;67.04;100119.13;5083699;28;20469;-63
2022/09/10 02:01:27;;;;;;;3.03;1.00;;;;;;;21.19;66.10;100116.41;5094055;28;20439;-63
2022/09/10 02:03:58;;;;;;;6.90;1.13;;;;;;;21.11;66.21;100119.59;5093852;28;20875;-62
2022/09/10 02:06:26;;;;;;;3.40;0.93;;;;;;;21.30;65.47;100113.53;5059629;28;20423;-63
2022/09/10 02:08:52;;;;;;;2.90;1.30;;;;;;;21.06;66.29;100114.25;5056279;28;20452;-62
2022/09/10 02:11:18;;;;;;;3.73;1.10;;;;;;;21.12;66.06;100113.47;5075580;28;20405;-63
2022/09/10 02:13:43;;;;;;;3.70;1.00;;;;;;;21.30;65.10;100114.38;5093485;28;20190;-63
2022/09/10 02:16:20;;;;;;;2.10;0.90;;;;;;;21.22;65.63;100112.69;5075725;28;20166;-63
2022/09/10 02:18:45;;;;;;;4.00;1.60;;;;;;;21.17;66.11;100115.16;5072694;28;20282;-63
2022/09/10 02:21:11;;;;;;;4.20;0.97;;;;;;;21.24;65.14;100118.88;5055632;28;20493;-63
2022/09/10 02:23:50;;;;;;;2.20;0.80;;;;;;;21.24;65.62;100118.03;5081053;28;20181;-63
2022/09/10 02:26:15;;;;;;;7.20;1.00;;;;;;;21.24;65.58;100116.00;5075756;28;20565;-63
2022/09/10 02:28:42;;;;;;;3.13;1.00;;;;;;;21.08;65.69;100114.69;5074947;28;20509;-63
2022/09/10 02:31:08;;;;;;;2.60;0.87;;;;;;;21.00;66.35;100115.88;5054898;28;20205;-63
2022/09/10 02:33:34;;;;;;;3.60;1.00;;;;;;;20.99;66.48;100123.69;5039946;28;20481;-63
2022/09/10 02:36:00;;;;;;;7.10;1.30;;;;;;;20.87;66.85;100120.28;5060526;28;20186;-63
2022/09/10 02:38:28;;;;;;;2.70;1.07;;;;;;;21.12;65.49;100115.53;5059481;28;20437;-63
2022/09/10 02:40:54;;;;;;;6.67;0.90;;;;;;;21.25;65.35;100111.91;5055998;28;20438;-63
2022/09/10 02:43:20;;;;;;;3.57;1.27;;;;;;;21.01;66.09;100120.38;5062988;28;20455;-63
2022/09/10 02:45:45;;;;;;;2.57;1.00;;;;;;;21.07;65.42;100111.00;5070946;28;20413;-63
2022/09/10 02:48:11;;;;;;;4.30;1.10;;;;;;;21.21;64.99;100111.06;5067360;28;20198;-63
2022/09/10 02:50:36;;;;;;;1.97;0.90;;;;;;;21.22;65.22;100112.69;5052398;28;20642;-63
2022/09/10 02:53:02;;;;;;;2.77;0.87;;;;;;;21.11;65.68;100099.50;5056531;28;20533;-63
2022/09/10 02:55:27;;;;;;;3.30;0.93;;;;;;;21.23;65.20;100102.84;5072044;28;20654;-63
2022/09/10 02:57:53;;;;;;;4.50;0.90;;;;;;;21.31;64.93;100106.56;5070731;28;20546;-63
2022/09/10 03:00:19;;;;;;;4.50;1.47;;;;;;;21.21;64.73;100110.22;5052747;28;20167;-63
2022/09/10 03:02:46;;;;;;;2.90;0.90;;;;;;;21.29;64.95;100111.91;5052870;28;20917;-63
2022/09/10 03:05:12;;;;;;;3.23;0.80;;;;;;;21.21;64.67;100099.56;5053283;28;20445;-63
2022/09/10 03:07:38;;;;;;;5.23;1.00;;;;;;;21.28;64.31;100105.34;5072537;28;20429;-63
2022/09/10 03:10:04;;;;;;;2.70;0.70;;;;;;;21.26;64.43;100104.94;5070314;28;20878;-63
2022/09/10 03:12:29;;;;;;;3.53;0.93;;;;;;;21.15;65.33;100106.09;5072437;28;20634;-63
2022/09/10 03:14:56;;;;;;;2.27;0.80;;;;;;;21.24;64.79;100109.44;5071799;28;20175;-63
2022/09/10 03:17:22;;;;;;;2.60;0.80;;;;;;;21.28;64.87;100104.53;5071809;28;20186;-63
2022/09/10 03:19:47;;;;;;;3.53;1.10;;;;;;;21.24;64.61;100103.69;5057691;28;20434;-63
2022/09/10 03:22:12;;;;;;;3.23;0.80;;;;;;;21.27;64.78;100097.94;5052282;28;20175;-63
2022/09/10 03:24:38;;;;;;;3.73;1.00;;;;;;;21.27;64.74;100103.69;5066432;28;20183;-64
2022/09/10 03:27:05;;;;;;;4.03;0.73;;;;;;;21.29;64.51;100092.66;5072313;28;20197;-63
2022/09/10 03:29:30;;;;;;;7.63;1.37;;;;;;;21.00;65.57;100102.34;5072040;28;20302;-63
2022/09/10 03:31:56;;;;;;;5.57;1.13;;;;;;;21.19;64.85;100104.91;5071972;28;20406;-62
2022/09/10 03:34:21;;;;;;;5.60;1.03;;;;;;;21.13;64.98;100114.31;5086968;28;20245;-63
2022/09/10 03:36:47;;;;;;;2.87;0.90;;;;;;;21.20;64.77;100103.69;5092083;28;20618;-63
2022/09/10 03:39:13;;;;;;;2.30;0.70;;;;;;;21.23;64.53;100104.91;5077021;28;20183;-63
2022/09/10 03:41:39;;;;;;;3.17;0.83;;;;;;;21.19;64.79;100104.06;5082406;28;20186;-63
2022/09/10 03:44:05;;;;;;;4.10;0.70;;;;;;;21.12;64.67;100101.19;5092104;28;20444;-63
2022/09/10 03:46:31;;;;;;;4.20;1.23;;;;;;;21.13;64.82;100100.75;5091530;28;20541;-62
2022/09/10 03:48:57;;;;;;;1.53;0.70;;;;;;;21.16;64.69;100105.69;5091355;28;20210;-63
2022/09/10 03:51:22;;;;;;;2.60;1.00;;;;;;;21.14;64.60;100105.28;5091708;28;20919;-62
2022/09/10 03:53:48;;;;;;;4.80;0.83;;;;;;;21.22;64.30;100106.94;5091847;28;20490;-63
2022/09/10 03:56:14;;;;;;;2.07;0.90;;;;;;;21.19;64.82;100113.53;5091791;28;20170;-63
2022/09/10 03:58:39;;;;;;;2.60;0.90;;;;;;;21.07;64.91;100105.25;5087680;28;20185;-63
2022/09/10 04:01:05;;;;;;;3.50;1.13;;;;;;;20.95;65.60;100114.22;5073124;28;20444;-63
2022/09/10 04:03:31;;;;;;;2.90;1.00;;;;;;;21.13;65.09;100111.44;5091765;28;20213;-63
2022/09/10 04:05:57;;;;;;;2.43;0.93;;;;;;;21.17;64.73;100109.41;5091539;28;20440;-62
2022/09/10 04:08:22;;;;;;;3.73;0.87;;;;;;;21.19;64.65;100119.25;5084592;28;20186;-63
2022/09/10 04:10:48;;;;;;;5.47;0.90;;;;;;;21.06;65.24;100115.09;5089515;28;20425;-63
2022/09/10 04:13:13;;;;;;;3.63;0.80;;;;;;;20.83;65.83;100117.38;5091292;28;20600;-63
2022/09/10 04:15:39;;;;;;;4.90;1.10;;;;;;;21.00;64.98;100118.75;5062117;28;20203;-63
2022/09/10 04:18:05;;;;;;;2.00;0.80;;;;;;;20.92;65.83;100126.50;5075794;28;20257;-63
2022/09/10 04:20:30;;;;;;;3.40;0.90;;;;;;;20.62;66.44;100120.13;5091380;28;20157;-63
2022/09/10 04:22:56;;;;;;;4.80;1.00;;;;;;;20.60;66.92;100113.97;5091603;28;20174;-63
2022/09/10 04:25:21;;;;;;;3.10;1.03;;;;;;;20.99;65.16;100119.97;5085445;28;20175;-63
2022/09/10 04:27:47;;;;;;;2.53;0.97;;;;;;;20.85;65.97;100114.94;5071254;28;20182;-63
2022/09/10 04:30:13;;;;;;;3.10;1.03;;;;;;;20.87;65.61;100118.22;5070911;28;20209;-63
2022/09/10 04:32:38;;;;;;;2.33;0.73;;;;;;;20.99;65.25;100123.69;5064218;28;20528;-63
2022/09/10 04:35:05;;;;;;;4.90;1.13;;;;;;;20.95;65.63;100122.81;5083604;28;20182;-63
2022/09/10 04:37:31;;;;;;;3.07;0.97;;;;;;;20.72;66.27;100124.31;5061567;28;20832;-63
2022/09/10 04:39:56;;;;;;;11.87;1.10;;;;;;;20.68;66.48;100127.13;5077491;28;20520;-63
2022/09/10 04:42:22;;;;;;;1.90;0.70;;;;;;;20.62;67.02;100128.72;5071294;28;20630;-63
2022/09/10 04:44:48;;;;;;;4.20;1.40;;;;;;;20.75;66.27;100127.19;5076211;28;20224;-63
2022/09/10 04:47:13;;;;;;;2.00;1.07;;;;;;;20.76;65.96;100128.81;5091434;28;20173;-63
2022/09/10 04:49:39;;;;;;;3.57;0.93;;;;;;;20.86;66.07;100130.94;5090872;28;20206;-63
2022/09/10 04:52:04;;;;;;;2.20;0.90;;;;;;;20.96;65.27;100129.38;5072951;28;20190;-63
2022/09/10 04:54:32;;;;;;;2.50;1.00;;;;;;;20.97;65.46;100133.91;5090094;28;20182;-63
2022/09/10 04:56:57;;;;;;;6.50;1.27;;;;;;;20.86;65.10;100132.97;5053394;28;20174;-63
2022/09/10 04:59:23;;;;;;;2.90;1.03;;;;;;;20.94;65.18;100129.81;5070911;28;20410;-63
2022/09/10 05:01:49;;;;;;;3.10;1.00;;;;;;;20.84;65.95;100133.41;5070852;28;20167;-63
2022/09/10 05:04:15;;;;;;;4.40;1.00;;;;;;;21.02;65.34;100130.66;5084581;28;20313;-63
2022/09/10 05:06:41;;;;;;;2.33;0.77;;;;;;;21.00;65.02;100142.53;5071737;28;20923;-63
2022/09/10 05:09:06;;;;;;;2.50;0.83;;;;;;;21.10;64.42;100138.91;5076299;28;20456;-63
2022/09/10 05:11:32;;;;;;;5.13;1.10;;;;;;;20.96;65.65;100146.59;5087385;28;20223;-63
2022/09/10 05:13:57;;;;;;;5.23;1.07;;;;;;;20.75;66.07;100153.00;5090637;28;20179;-63
2022/09/10 05:16:23;;;;;;;3.00;0.93;;;;;;;20.90;65.41;100154.78;5090852;28;20653;-63
2022/09/10 05:18:48;;;;;;;2.90;0.93;;;;;;;21.00;65.41;100156.88;5089318;28;20186;-63
2022/09/10 05:21:14;;;;;;;4.37;1.10;;;;;;;21.08;65.07;100160.63;5074608;28;20606;-63
2022/09/10 05:23:40;;;;;;;3.30;0.80;;;;;;;20.99;64.97;100155.25;5078334;28;20182;-63
2022/09/10 05:26:06;;;;;;;3.27;1.00;;;;;;;21.07;64.83;100156.13;5094699;28;20233;-63
2022/09/10 05:28:31;;;;;;;5.53;1.17;;;;;;;20.68;66.36;100147.19;5094135;28;20935;-63
2022/09/10 05:30:56;;;;;;;4.20;1.00;;;;;;;20.92;65.70;100163.78;5092764;28;20197;-63
2022/09/10 05:33:22;;;;;;;3.40;0.80;;;;;;;20.93;65.37;100165.44;5092840;28;20581;-63
2022/09/10 05:35:50;;;;;;;3.90;1.00;;;;;;;21.08;65.06;100154.88;5093715;28;20179;-63
2022/09/10 05:38:16;;;;;;;2.60;0.70;;;;;;;21.01;65.28;100169.19;5091444;28;20301;-63
2022/09/10 05:40:41;;;;;;;3.83;0.90;;;;;;;21.09;64.57;100165.97;5093470;28;20547;-63
2022/09/10 05:43:07;;;;;;;2.00;0.80;;;;;;;20.71;66.49;100160.75;5074100;28;20182;-63
2022/09/10 05:45:32;;;;;;;2.47;0.90;;;;;;;20.69;66.39;100163.22;5089426;28;20190;-63
2022/09/10 05:47:58;;;;;;;6.93;1.17;;;;;;;20.62;66.67;100159.47;5058042;28;20186;-63
2022/09/10 05:50:24;;;;;;;2.67;0.87;;;;;;;20.80;66.04;100163.28;5091620;28;20208;-63
2022/09/10 05:52:49;;;;;;;3.73;1.00;;;;;;;20.80;66.30;100161.25;5090477;28;20861;-63
2022/09/10 05:55:15;;;;;;;4.03;0.80;;;;;;;20.66;66.58;100163.16;5093537;28;20175;-63
2022/09/10 05:57:40;;;;;;;4.13;1.07;;;;;;;20.68;66.41;100173.03;5093584;28;20166;-63
2022/09/10 06:00:10;;;;;;;7.27;1.30;;;;;;;20.57;66.96;100165.59;5093431;28;20544;-63
2022/09/10 06:02:35;;;;;;;3.20;1.00;;;;;;;20.74;66.50;100164.88;5074000;28;20214;-63
2022/09/10 06:05:01;;;;;;;8.80;1.50;;;;;;;20.80;66.10;100172.72;5075674;28;20810;-63
2022/09/10 06:07:27;;;;;;;4.50;0.93;;;;;;;20.84;65.64;100170.69;5059052;28;20183;-63
2022/09/10 06:09:53;;;;;;;2.53;0.90;;;;;;;20.96;65.73;100179.00;5084322;28;20203;-63
2022/09/10 06:12:18;;;;;;;3.30;0.90;;;;;;;20.84;66.05;100172.72;5087805;28;20186;-63
2022/09/10 06:14:44;;;;;;;3.37;1.00;;;;;;;20.95;65.52;100179.41;5093869;28;20158;-63
2022/09/10 06:17:09;;;;;;;5.67;1.03;;;;;;;20.80;66.14;100171.88;5093356;28;20542;-63
2022/09/10 06:19:35;;;;;;;2.50;0.80;;;;;;;20.80;66.20;100181.31;5083099;28;20191;-63
2022/09/10 06:22:00;;;;;;;2.40;0.87;;;;;;;20.95;65.25;100185.97;5093709;28;20189;-63
2022/09/10 06:24:26;;;;;;;6.30;1.13;;;;;;;20.76;66.09;100174.72;5091215;28;20186;-63
2022/09/10 06:26:51;;;;;;;5.13;1.20;;;;;;;20.42;67.66;100187.56;5090922;28;20205;-63
2022/09/10 06:29:20;;;;;;;5.77;1.43;;;;;;;20.67;66.52;100191.47;5090708;28;20199;-63
2022/09/10 06:31:46;;;;;;;3.40;1.10;;;;;;;20.76;66.19;100200.56;5074203;28;20706;-63
2022/09/10 06:34:11;;;;;;;3.30;1.10;;;;;;;20.76;66.04;100196.84;5066578;28;20469;-63
2022/09/10 06:36:37;;;;;;;3.20;0.60;;;;;;;20.70;66.14;100199.28;5089250;28;20433;-63
2022/09/10 06:39:02;;;;;;;2.27;1.00;;;;;;;20.69;66.52;100206.25;5091702;28;20182;-63
2022/09/10 06:41:29;;;;;;;6.87;0.80;;;;;;;20.55;67.10;100206.13;5074861;28;20179;-63
2022/09/10 06:43:55;;;;;;;2.83;0.77;;;;;;;20.62;66.52;100202.50;5093007;28;20652;-63
2022/09/10 06:46:21;;;;;;;4.13;1.00;;;;;;;20.82;65.61;100207.56;5091372;28;20440;-63
2022/09/10 06:48:46;;;;;;;3.83;0.80;;;;;;;20.22;68.32;100209.09;5087081;28;20209;-63
2022/09/10 06:51:12;;;;;;;2.73;0.80;;;;;;;20.23;69.05;100205.03;5087935;28;20187;-63
2022/09/10 06:53:38;;;;;;;3.50;0.90;;;;;;;20.13;69.11;100208.63;5091056;28;20213;-63
2022/09/10 06:56:04;;;;;;;6.50;1.33;;;;;;;20.28;70.28;100210.41;5091170;28;20201;-64
2022/09/10 06:58:31;;;;;;;3.37;1.97;;;;;;;20.41;72.02;100219.53;5091596;28;20424;-63
2022/09/10 07:00:56;;;;;;;3.40;1.27;;;;;;;20.39;70.28;100222.78;5075349;28;20244;-63
2022/09/10 07:03:22;;;;;;;6.77;1.43;;;;;;;20.17;71.26;100225.84;5070316;28;20433;-64
2022/09/10 07:05:47;;;;;;;5.97;1.30;;;;;;;20.04;71.60;100221.56;5082304;28;20206;-63
2022/09/10 07:08:14;;;;;;;9.03;1.40;;;;;;;20.31;70.72;100235.41;5089972;28;20287;-64
2022/09/10 07:10:40;;;;;;;3.10;1.10;;;;;;;20.41;71.01;100233.88;5089743;28;20255;-64
2022/09/10 07:13:06;;;;;;;6.47;1.30;;;;;;;20.74;70.96;100225.97;5062523;28;20440;-64
2022/09/10 07:15:32;;;;;;;7.73;0.80;;;;;;;20.81;70.64;100228.88;5070839;28;20171;-65
2022/09/10 07:17:57;;;;;;;4.23;1.27;;;;;;;20.76;70.91;100235.00;5078202;28;20921;-63
2022/09/10 07:20:24;;;;;;;3.77;0.97;;;;;;;20.92;69.96;100243.34;5063487;28;20632;-64
2022/09/10 07:22:54;;;;;;;5.83;1.33;;;;;;;20.99;69.43;100232.75;5075511;28;20178;-64
2022/09/10 07:25:20;;;;;;;4.30;0.90;;;;;;;21.04;69.98;100240.16;5065489;28;20431;-63
2022/09/10 07:27:45;;;;;;;2.73;0.93;;;;;;;20.71;70.12;100238.22;5070715;28;20428;-63
2022/09/10 07:30:11;;;;;;;2.40;0.90;;;;;;;21.17;69.21;100238.59;5079096;28;20449;-63
2022/09/10 07:32:37;;;;;;;5.20;1.00;;;;;;;21.19;69.82;100241.88;5090489;28;20189;-64
2022/09/10 07:35:02;;;;;;;3.17;1.10;;;;;;;20.78;70.33;100237.47;5089798;28;20444;-64
2022/09/10 07:37:28;;;;;;;2.80;1.00;;;;;;;21.02;69.68;100243.41;5089662;28;20232;-64
2022/09/10 07:39:53;;;;;;;5.00;1.77;;;;;;;20.80;70.84;100247.31;5079930;28;20635;-65
2022/09/10 07:42:19;;;;;;;2.70;0.80;;;;;;;20.90;70.28;100246.63;5073161;28;20186;-64
2022/09/10 07:44:44;;;;;;;2.53;1.00;;;;;;;20.37;71.06;100248.16;5088503;28;20182;-64
2022/09/10 07:47:10;;;;;;;2.20;0.90;;;;;;;20.56;69.94;100241.34;5088159;28;20638;-63
2022/09/10 07:49:35;;;;;;;2.87;0.90;;;;;;;20.62;69.76;100246.34;5079664;28;20666;-64
2022/09/10 07:52:01;;;;;;;2.40;0.90;;;;;;;20.22;71.34;100240.63;5086625;28;20186;-64
2022/09/10 07:54:27;;;;;;;3.67;0.90;;;;;;;20.15;71.89;100245.47;5071080;28;20189;-64
2022/09/10 07:56:52;;;;;;;4.73;1.00;;;;;;;20.39;70.41;100251.47;5079959;28;20222;-64
2022/09/10 07:59:18;;;;;;;4.47;1.00;;;;;;;20.26;71.54;100258.69;5086926;28;20749;-64
2022/09/10 08:01:43;;;;;;;2.03;0.90;;;;;;;20.65;70.12;100248.41;5078334;28;20201;-63
2022/09/10 08:04:09;;;;;;;2.87;0.93;;;;;;;20.14;71.89;100249.53;5070771;28;20198;-64
2022/09/10 08:06:34;;;;;;;2.03;0.70;;;;;;;20.58;70.87;100261.88;5069943;28;20178;-64
2022/09/10 08:09:00;;;;;;;3.97;0.90;;;;;;;20.35;71.39;100262.06;5077864;28;20209;-65
2022/09/10 08:11:25;;;;;;;3.10;0.80;;;;;;;20.07;72.34;100261.75;5090151;28;20162;-64
2022/09/10 08:13:52;;;;;;;7.63;1.53;;;;;;;20.13;71.89;100263.06;5084346;28;20190;-65
2022/09/10 08:16:19;;;;;;;2.60;1.00;;;;;;;20.13;71.93;100265.09;5071274;28;20166;-63
2022/09/10 08:18:50;;;;;;;4.70;0.93;;;;;;;19.53;74.16;100266.38;5073793;28;20786;-63
2022/09/10 08:21:16;;;;;;;6.23;1.03;;;;;;;19.74;73.52;100267.47;5089880;28;20413;-63
2022/09/10 08:23:42;;;;;;;4.70;0.70;;;;;;;19.67;73.61;100275.16;5086382;28;20420;-63
2022/09/10 08:26:08;;;;;;;11.10;1.53;;;;;;;19.49;74.23;100277.78;5086048;28;20464;-63
2022/09/10 08:28:36;;;;;;;4.60;1.30;;;;;;;19.67;73.72;100287.41;5090491;28;20463;-63
2022/09/10 08:31:06;;;;;;;5.30;1.60;;;;;;;19.47;74.35;100285.91;5090409;28;20163;-63
2022/09/10 08:33:31;;;;;;;5.13;3.00;;;;;;;19.50;74.61;100298.63;5086418;28;20865;-63
2022/09/10 08:35:58;;;;;;;5.43;1.70;;;;;;;19.50;74.14;100304.34;5069722;28;20433;-63
2022/09/10 08:38:32;;;;;;;2.07;1.00;;;;;;;19.93;72.60;100313.16;5069481;28;20254;-63
2022/09/10 08:40:58;;;;;;;5.93;2.23;;;;;;;19.80;73.25;100303.16;5075092;28;20427;-63
2022/09/10 08:43:34;;;;;;;10.80;2.00;;;;;;;19.91;72.83;100309.84;5090220;28;20452;-63
2022/09/10 08:46:01;;;;;;;10.60;5.40;;;;;;;19.88;73.46;100310.63;5072253;28;20399;-63
2022/09/10 09:16:58;;;;;;;3.93;1.50;;;;;;;20.01;76.15;100297.69;5104997;27;21101;-63
2022/09/10 09:19:44;;;;;;;3.67;1.60;;;;;;;19.85;76.54;100307.69;5070113;28;20497;-63
2022/09/10 09:22:11;;;;;;;5.37;1.47;;;;;;;19.99;75.55;100300.13;5075009;28;20407;-62
2022/09/10 09:24:56;;;;;;;5.40;1.40;;;;;;;19.62;76.91;100307.00;5089789;28;20549;-62
2022/09/10 09:27:23;;;;;;;4.77;1.77;;;;;;;19.48;77.64;100307.63;5095835;28;21137;-62
2022/09/10 09:30:00;;;;;;;4.60;1.67;;;;;;;19.61;76.46;100302.50;5057678;28;20451;-62
2022/09/10 09:32:25;;;;;;;3.47;1.90;;;;;;;19.83;75.50;100310.13;5083680;28;20473;-62
2022/09/10 09:35:16;;;;;;;3.90;1.87;;;;;;;19.88;74.99;100310.63;5073016;28;20432;-62
2022/09/10 09:37:42;;;;;;;7.53;1.70;;;;;;;19.67;75.24;100315.25;5029563;28;20549;-62
2022/09/10 09:40:11;;;;;;;8.73;1.63;;;;;;;19.77;75.08;100309.66;5058540;28;20432;-62
2022/09/10 09:42:46;;;;;;;6.40;1.67;;;;;;;19.62;75.93;100299.22;5095978;28;20527;-62
2022/09/10 09:45:24;;;;;;;5.40;1.43;;;;;;;19.67;75.51;100298.88;5071504;28;20459;-62
2022/09/10 09:47:49;;;;;;;4.60;1.60;;;;;;;20.05;74.20;100292.00;5088096;28;20981;-62
2022/09/10 10:10:28;;;;;;;5.70;1.43;;;;;;;20.10;69.33;100280.19;5110474;27;20352;-61
2022/09/10 10:12:54;;;;;;;6.90;1.60;;;;;;;20.03;69.65;100272.34;5098219;28;20432;-61
2022/09/10 10:15:40;;;;;;;4.50;1.70;;;;;;;19.96;69.94;100277.97;5098429;28;20188;-61
2022/09/10 10:18:21;;;;;;;5.10;1.53;;;;;;;19.87;70.56;100265.97;5086252;28;20216;-61
2022/09/10 10:21:04;;;;;;;6.50;2.20;;;;;;;19.83;70.84;100272.91;5100213;28;20431;-61
2022/09/10 10:23:35;;;;;;;9.83;4.30;;;;;;;19.97;70.29;100273.88;5081041;28;20415;-61
2022/09/10 10:26:14;;;;;;;5.73;1.90;;;;;;;20.06;69.04;100274.41;5102524;28;20423;-61
2022/09/10 10:28:44;;;;;;;5.73;2.03;;;;;;;19.92;69.06;100274.22;5080366;28;20440;-62
2022/09/10 10:31:10;;;;;;;5.40;1.40;;;;;;;20.08;68.73;100265.44;5066143;28;20962;-62
2022/09/10 10:33:36;;;;;;;3.60;1.60;;;;;;;20.12;68.59;100269.19;5098708;28;20431;-62
2022/09/10 10:36:22;;;;;;;3.30;1.30;;;;;;;20.13;68.36;100260.22;5080799;28;20423;-62
2022/09/10 10:38:54;;;;;;;6.80;1.60;;;;;;;20.12;69.02;100266.31;5104334;28;20456;-62
2022/09/10 10:41:39;;;;;;;4.80;1.53;;;;;;;20.37;68.50;100268.22;5071334;28;20503;-62
2022/09/10 13:09:37;;;;;;;12.63;4.33;;;;;;;20.33;71.84;100217.81;5095415;27;20329;-63
2022/09/10 13:12:13;;;;;;;15.73;5.67;;;;;;;20.33;72.06;100210.03;5080180;28;20456;-62
2022/09/10 13:14:39;;;;;;;4.67;3.00;;;;;;;20.47;71.96;100207.28;5064613;28;20440;-63
2022/09/10 13:17:05;;;;;;;7.30;3.33;;;;;;;20.46;72.01;100208.50;5086297;28;20507;-63
2022/09/10 13:19:30;;;;;;;9.50;3.70;;;;;;;20.49;71.65;100204.00;5077021;28;20187;-63
2022/09/10 13:21:55;;;;;;;5.97;4.03;;;;;;;20.61;70.89;100206.56;5080909;28;20721;-63
2022/09/10 13:24:34;;;;;;;9.33;4.03;;;;;;;20.61;71.13;100212.31;5074041;28;20647;-63
2022/09/10 13:27:16;;;;;;;6.67;3.67;;;;;;;20.61;70.97;100212.31;5083253;28;20201;-62
2022/09/10 13:29:53;;;;;;;7.40;3.33;;;;;;;20.61;70.62;100207.41;5063353;28;20440;-63
2022/09/10 13:32:29;;;;;;;6.20;3.53;;;;;;;20.77;68.99;100204.25;5062941;28;20480;-64
2022/09/10 13:35:20;;;;;;;9.80;3.53;;;;;;;20.73;68.14;100207.06;5085002;28;20431;-64
2022/09/10 13:38:19;;;;;;;6.27;3.40;;;;;;;20.78;67.25;100206.72;5068429;28;20484;-64
2022/09/10 13:41:13;;;;;;;25.03;4.17;;;;;;;20.71;67.27;100209.53;5060515;28;20544;-64
2022/09/10 13:43:54;;;;;;;13.93;4.63;;;;;;;20.79;67.05;100214.13;5081175;28;20452;-64
2022/09/10 13:46:29;;;;;;;7.33;3.00;;;;;;;20.70;67.08;100222.22;5079083;28;20462;-64
2022/09/10 13:49:05;;;;;;;11.77;4.33;;;;;;;20.83;66.96;100240.78;5064525;28;20461;-63
2022/09/10 13:51:48;;;;;;;6.13;3.43;;;;;;;20.69;67.22;100234.94;5067536;28;20546;-64
2022/09/10 13:54:34;;;;;;;11.40;3.40;;;;;;;20.74;67.56;100230.88;5061692;28;20460;-63
2022/09/10 13:57:04;;;;;;;10.83;3.67;;;;;;;20.81;66.43;100228.88;5060258;28;21116;-63
2022/09/10 13:59:30;;;;;;;6.50;4.07;;;;;;;20.88;66.17;100234.66;5066955;28;21141;-63
2022/09/10 14:01:56;;;;;;;8.10;3.90;;;;;;;20.85;66.09;100229.72;5051968;28;20454;-63
2022/09/10 14:04:29;;;;;;;7.07;3.93;;;;;;;20.89;66.31;100224.00;5043672;28;20183;-63
2022/09/10 14:06:57;;;;;;;7.60;4.30;;;;;;;20.80;67.04;100220.66;5063731;28;20175;-64
2022/09/10 14:09:23;;;;;;;11.93;4.77;;;;;;;20.86;65.99;100219.91;5053699;28;20481;-64
2022/09/10 14:11:48;;;;;;;9.03;4.10;;;;;;;20.82;66.64;100221.91;5049877;28;20430;-63
2022/09/10 14:14:16;;;;;;;8.63;4.00;;;;;;;20.97;67.14;100222.88;5050856;28;20183;-64
2022/09/10 14:16:43;;;;;;;9.53;3.37;;;;;;;21.06;67.43;100224.16;5023554;28;20626;-64
2022/09/10 14:19:30;;;;;;;10.80;4.00;;;;;;;21.06;67.88;100226.22;5011237;28;20474;-63
2022/09/10 14:21:56;;;;;;;6.43;2.67;;;;;;;20.86;67.65;100230.53;5052168;28;20426;-64
2022/09/10 14:24:43;;;;;;;6.80;2.57;;;;;;;20.95;66.94;100219.56;5045307;28;20829;-64
2022/09/10 14:27:18;;;;;;;7.33;2.13;;;;;;;20.74;67.44;100220.22;5049879;28;20476;-64
2022/09/10 14:29:45;;;;;;;15.50;2.60;;;;;;;20.93;67.01;100217.09;5048061;28;20436;-64
2022/09/10 14:32:30;;;;;;;10.50;3.87;;;;;;;20.91;66.93;100222.44;5032837;28;20418;-63
2022/09/10 14:34:56;;;;;;;9.73;1.70;;;;;;;21.00;66.21;100220.03;5032497;28;20433;-64
2022/09/10 14:37:33;;;;;;;7.27;1.60;;;;;;;20.90;66.07;100225.69;5050793;28;20518;-64
2022/09/10 14:40:17;;;;;;;4.53;1.50;;;;;;;20.85;66.12;100221.13;5030809;28;20190;-64
2022/09/10 14:42:44;;;;;;;4.53;1.50;;;;;;;21.00;65.63;100217.16;5050636;28;20426;-64
2022/09/10 14:45:41;;;;;;;11.83;1.60;;;;;;;20.98;65.14;100221.66;5049279;28;20426;-64